Time;durP1;ratioP1;P1;durP2;ratioP2;P2;SDS_P1;SDS_P2;PMS_P1;PMS_P2;Temp;Humidity;BMP_temperature;BMP_pressure;BME280_temperature;BME280_humidity;BME280_pressure;Samples;Min_cycle;Max_cycle;Signal;HPM_P1;HPM_P2
2022/02/21 00:00:41;;;;;;;14.07;5.55;;;;;;;;;;5030548;28;20033;-71
2022/02/21 00:03:08;;;;;;;17.85;5.60;;;;;;;;;;5036807;28;20037;-71
2022/02/21 00:05:35;;;;;;;16.73;4.88;;;;;;;;;;5035069;28;20109;-71
2022/02/21 00:08:01;;;;;;;11.05;4.50;;;;;;;;;;5030540;28;20021;-71
2022/02/21 00:10:27;;;;;;;11.77;4.55;;;;;;;;;;5016113;28;20040;-71
2022/02/21 00:12:54;;;;;;;18.70;5.28;;;;;;;;;;5034559;28;20493;-71
2022/02/21 00:15:23;;;;;;;12.10;4.18;;;;;;;;;;5032012;28;20037;-72
2022/02/21 00:17:50;;;;;;;12.50;4.45;;;;;;;;;;5031757;28;20695;-71
2022/02/21 00:20:16;;;;;;;14.45;4.78;;;;;;;;;;5014574;28;20463;-70
2022/02/21 00:22:42;;;;;;;15.05;5.38;;;;;;;;;;5031929;28;20065;-71
2022/02/21 00:25:10;;;;;;;12.50;4.85;;;;;;;;;;5033967;28;20531;-71
2022/02/21 00:27:36;;;;;;;12.98;4.45;;;;;;;;;;5043405;28;20029;-71
2022/02/21 00:30:03;;;;;;;10.77;4.38;;;;;;;;;;5043370;28;20477;-71
2022/02/21 00:32:29;;;;;;;12.65;4.00;;;;;;;;;;5043231;28;20508;-70
2022/02/21 00:34:56;;;;;;;8.93;3.65;;;;;;;;;;5040078;28;20040;-71
2022/02/21 00:37:22;;;;;;;10.65;3.55;;;;;;;;;;5030618;28;20029;-71
2022/02/21 00:39:48;;;;;;;10.57;4.05;;;;;;;;;;5030278;28;20104;-71
2022/02/21 00:42:14;;;;;;;16.80;4.90;;;;;;;;;;5033404;28;20099;-71
2022/02/21 00:44:41;;;;;;;12.52;3.55;;;;;;;;;;5033590;28;20041;-72
2022/02/21 00:47:07;;;;;;;10.35;4.00;;;;;;;;;;5031835;28;20013;-70
2022/02/21 00:49:34;;;;;;;11.48;3.70;;;;;;;;;;5036634;28;20828;-70
2022/02/21 00:52:02;;;;;;;8.95;3.70;;;;;;;;;;5034681;28;20036;-70
2022/02/21 00:54:28;;;;;;;15.60;3.85;;;;;;;;;;5031779;28;20079;-71
2022/02/21 00:56:55;;;;;;;13.32;4.07;;;;;;;;;;5033310;28;20030;-70
2022/02/21 00:59:21;;;;;;;12.70;3.35;;;;;;;;;;5036273;28;20060;-70
2022/02/21 01:01:47;;;;;;;7.93;3.83;;;;;;;;;;5036392;28;20032;-71
2022/02/21 01:04:13;;;;;;;15.43;3.50;;;;;;;;;;5033963;28;20493;-72
2022/02/21 01:06:39;;;;;;;11.82;3.70;;;;;;;;;;5033290;28;20570;-71
2022/02/21 01:09:05;;;;;;;10.88;4.18;;;;;;;;;;5038795;28;20226;-71
2022/02/21 01:11:32;;;;;;;9.65;3.58;;;;;;;;;;5031577;28;20022;-70
2022/02/21 01:13:58;;;;;;;10.25;3.13;;;;;;;;;;5033077;28;20132;-71
2022/02/21 01:16:25;;;;;;;6.07;2.78;;;;;;;;;;5035139;28;20625;-70
2022/02/21 01:18:51;;;;;;;8.15;3.03;;;;;;;;;;5036876;28;20592;-70
2022/02/21 01:21:18;;;;;;;8.82;3.58;;;;;;;;;;5030846;28;20029;-71
2022/02/21 01:23:44;;;;;;;10.45;3.65;;;;;;;;;;5035065;28;20025;-71
2022/02/21 01:26:10;;;;;;;10.38;3.30;;;;;;;;;;5037221;28;20481;-70
2022/02/21 01:28:37;;;;;;;8.70;3.85;;;;;;;;;;5039327;28;20028;-73
2022/02/21 01:31:03;;;;;;;7.55;3.35;;;;;;;;;;5039897;28;20029;-70
2022/02/21 01:33:29;;;;;;;11.05;3.47;;;;;;;;;;5042338;28;20067;-70
2022/02/21 01:35:56;;;;;;;9.15;3.63;;;;;;;;;;5043040;28;20029;-70
2022/02/21 01:38:22;;;;;;;9.40;3.72;;;;;;;;;;5046136;28;20491;-70
2022/02/21 01:40:48;;;;;;;10.35;4.07;;;;;;;;;;5044226;28;20450;-71
2022/02/21 01:43:14;;;;;;;11.55;4.05;;;;;;;;;;5043804;28;20036;-71
2022/02/21 01:45:40;;;;;;;11.15;3.67;;;;;;;;;;5043533;28;20045;-74
2022/02/21 01:48:06;;;;;;;15.45;3.78;;;;;;;;;;5045078;28;20029;-70
2022/02/21 01:50:33;;;;;;;9.88;3.30;;;;;;;;;;5042508;28;20055;-70
2022/02/21 01:52:59;;;;;;;17.95;4.88;;;;;;;;;;5042961;28;20021;-70
2022/02/21 01:55:25;;;;;;;9.98;3.58;;;;;;;;;;5036411;28;20033;-71
2022/02/21 01:57:51;;;;;;;8.02;3.47;;;;;;;;;;5039382;28;20025;-71
2022/02/21 02:00:18;;;;;;;10.50;2.97;;;;;;;;;;5043403;28;20020;-71
2022/02/21 02:02:46;;;;;;;9.93;3.45;;;;;;;;;;5040849;28;20029;-71
2022/02/21 02:05:15;;;;;;;7.95;3.00;;;;;;;;;;5042143;28;20552;-70
2022/02/21 02:07:42;;;;;;;8.93;3.50;;;;;;;;;;5042284;28;20037;-71
2022/02/21 02:10:08;;;;;;;10.73;3.33;;;;;;;;;;5042284;28;20025;-71
2022/02/21 02:12:35;;;;;;;8.77;3.22;;;;;;;;;;5035927;28;20075;-71
2022/02/21 02:15:01;;;;;;;8.02;3.28;;;;;;;;;;5042245;28;20630;-70
2022/02/21 02:17:27;;;;;;;12.10;3.42;;;;;;;;;;5039949;28;20040;-71
2022/02/21 02:19:54;;;;;;;12.00;3.85;;;;;;;;;;5039799;28;20025;-71
2022/02/21 02:22:21;;;;;;;7.93;3.38;;;;;;;;;;5039273;28;20021;-71
2022/02/21 02:24:48;;;;;;;12.93;3.63;;;;;;;;;;5042234;28;20041;-71
2022/02/21 02:27:15;;;;;;;12.48;4.35;;;;;;;;;;5040440;28;20025;-71
2022/02/21 02:29:42;;;;;;;7.78;3.08;;;;;;;;;;5044661;28;20051;-70
2022/02/21 02:32:09;;;;;;;6.00;3.08;;;;;;;;;;5038216;28;20028;-71
2022/02/21 02:34:37;;;;;;;13.75;3.83;;;;;;;;;;5042758;28;20024;-70
2022/02/21 02:37:04;;;;;;;9.57;3.47;;;;;;;;;;5041224;28;20562;-72
2022/02/21 02:39:30;;;;;;;10.13;3.60;;;;;;;;;;5042100;28;20036;-72
2022/02/21 02:41:56;;;;;;;12.05;3.58;;;;;;;;;;5042240;28;20020;-71
2022/02/21 02:44:22;;;;;;;11.68;4.13;;;;;;;;;;5041437;28;20047;-71
2022/02/21 02:46:48;;;;;;;9.60;3.80;;;;;;;;;;5038371;28;20099;-70
2022/02/21 02:49:15;;;;;;;8.88;3.72;;;;;;;;;;5044573;28;20032;-71
2022/02/21 02:51:41;;;;;;;13.75;3.83;;;;;;;;;;5040061;28;20032;-71
2022/02/21 02:54:08;;;;;;;16.00;3.80;;;;;;;;;;5039090;28;20037;-70
2022/02/21 02:56:39;;;;;;;15.07;3.90;;;;;;;;;;5044712;28;20044;-70
2022/02/21 02:59:05;;;;;;;8.80;3.50;;;;;;;;;;5035150;28;20111;-70
2022/02/21 03:01:31;;;;;;;11.38;3.70;;;;;;;;;;5043514;28;20028;-71
2022/02/21 03:03:57;;;;;;;8.27;3.75;;;;;;;;;;5038887;28;20046;-72
2022/02/21 03:06:23;;;;;;;12.68;3.90;;;;;;;;;;5037067;28;20079;-72
2022/02/21 03:08:50;;;;;;;12.35;3.53;;;;;;;;;;5040728;28;20028;-71
2022/02/21 03:11:16;;;;;;;14.30;4.03;;;;;;;;;;5041680;28;20027;-71
2022/02/21 03:13:43;;;;;;;9.63;3.42;;;;;;;;;;5043372;28;20025;-72
2022/02/21 03:16:09;;;;;;;8.63;3.53;;;;;;;;;;5044934;28;20075;-71
2022/02/21 03:18:35;;;;;;;9.98;3.90;;;;;;;;;;5047340;28;20036;-71
2022/02/21 03:21:01;;;;;;;13.27;3.80;;;;;;;;;;5040766;28;20027;-71
2022/02/21 03:23:27;;;;;;;8.38;3.83;;;;;;;;;;5044562;28;20036;-72
2022/02/21 03:25:54;;;;;;;19.58;3.55;;;;;;;;;;5044474;28;20028;-70
2022/02/21 03:28:20;;;;;;;10.95;3.15;;;;;;;;;;5043755;28;20056;-73
2022/02/21 03:30:46;;;;;;;7.43;3.28;;;;;;;;;;5046453;28;20029;-70
2022/02/21 03:33:12;;;;;;;11.85;3.60;;;;;;;;;;5044248;28;20055;-74
2022/02/21 03:35:39;;;;;;;10.07;2.85;;;;;;;;;;5046999;28;20040;-71
2022/02/21 03:38:05;;;;;;;12.98;4.25;;;;;;;;;;5024974;28;20607;-71
2022/02/21 03:40:31;;;;;;;8.88;3.55;;;;;;;;;;5045085;28;20451;-71
2022/02/21 03:42:58;;;;;;;10.48;3.80;;;;;;;;;;5046248;28;20024;-72
2022/02/21 03:45:24;;;;;;;10.52;3.35;;;;;;;;;;5042907;28;20041;-71
2022/02/21 03:47:51;;;;;;;12.20;3.72;;;;;;;;;;5043966;28;20029;-71
2022/02/21 03:50:17;;;;;;;15.73;3.20;;;;;;;;;;5042353;28;20419;-71
2022/02/21 03:52:43;;;;;;;11.35;3.58;;;;;;;;;;5043730;28;20032;-71
2022/02/21 03:55:10;;;;;;;9.43;3.35;;;;;;;;;;5041836;28;20023;-71
2022/02/21 03:57:36;;;;;;;11.77;3.03;;;;;;;;;;5044661;28;20106;-71
2022/02/21 04:00:05;;;;;;;10.18;2.78;;;;;;;;;;5043315;28;20512;-71
2022/02/21 04:02:31;;;;;;;11.63;2.47;;;;;;;;;;5037247;28;20031;-71
2022/02/21 04:05:00;;;;;;;15.57;3.20;;;;;;;;;;5038833;28;20049;-71
2022/02/21 04:07:27;;;;;;;12.73;2.75;;;;;;;;;;5026011;28;20071;-71
2022/02/21 04:09:53;;;;;;;11.40;2.92;;;;;;;;;;5034860;28;20028;-71
2022/02/21 04:12:19;;;;;;;13.45;3.85;;;;;;;;;;5033368;28;20026;-71
2022/02/21 04:14:45;;;;;;;12.85;3.00;;;;;;;;;;5034873;28;20485;-71
2022/02/21 04:17:11;;;;;;;11.90;3.38;;;;;;;;;;5017168;28;20492;-72
2022/02/21 04:19:38;;;;;;;10.07;3.22;;;;;;;;;;5012497;28;20068;-71
2022/02/21 04:22:04;;;;;;;10.52;3.65;;;;;;;;;;5031550;28;20239;-71
2022/02/21 04:24:31;;;;;;;20.40;4.10;;;;;;;;;;5032539;28;20041;-71
2022/02/21 04:26:57;;;;;;;14.85;3.55;;;;;;;;;;5034758;28;20020;-70
2022/02/21 04:29:23;;;;;;;10.63;3.47;;;;;;;;;;5033865;28;20484;-71
2022/02/21 04:31:49;;;;;;;10.32;3.45;;;;;;;;;;5025732;28;20052;-70
2022/02/21 04:34:15;;;;;;;15.80;3.83;;;;;;;;;;5034350;28;20031;-71
2022/02/21 04:36:41;;;;;;;10.98;3.25;;;;;;;;;;5029961;28;20132;-71
2022/02/21 04:39:07;;;;;;;13.23;3.22;;;;;;;;;;5034378;28;20045;-71
2022/02/21 04:41:33;;;;;;;12.90;3.67;;;;;;;;;;5028185;28;20021;-73
2022/02/21 04:44:00;;;;;;;18.13;3.83;;;;;;;;;;5034224;28;20996;-71
2022/02/21 04:46:26;;;;;;;19.70;3.55;;;;;;;;;;5033754;28;20051;-71
2022/02/21 04:48:52;;;;;;;15.38;3.75;;;;;;;;;;5030521;28;20029;-71
2022/02/21 04:51:18;;;;;;;13.98;3.55;;;;;;;;;;5030651;28;20033;-71
2022/02/21 04:53:44;;;;;;;15.48;3.90;;;;;;;;;;5032710;28;20036;-72
2022/02/21 04:56:10;;;;;;;18.50;3.35;;;;;;;;;;5032716;28;20039;-70
2022/02/21 04:58:36;;;;;;;15.70;3.45;;;;;;;;;;5032731;28;20116;-72
2022/02/21 05:01:03;;;;;;;14.23;3.63;;;;;;;;;;5030557;28;20056;-71
2022/02/21 05:03:29;;;;;;;11.48;3.33;;;;;;;;;;5029896;28;20095;-71
2022/02/21 05:05:55;;;;;;;10.02;3.20;;;;;;;;;;5014046;28;20045;-72
2022/02/21 05:08:21;;;;;;;8.38;2.50;;;;;;;;;;5028283;28;20105;-71
2022/02/21 05:10:47;;;;;;;11.43;3.35;;;;;;;;;;5028806;28;20021;-70
2022/02/21 05:13:13;;;;;;;11.98;3.08;;;;;;;;;;5024920;28;20021;-73
2022/02/21 05:15:39;;;;;;;14.32;3.10;;;;;;;;;;5028518;28;20103;-70
2022/02/21 05:18:05;;;;;;;16.58;3.58;;;;;;;;;;5031419;28;20021;-71
2022/02/21 05:20:32;;;;;;;12.73;3.58;;;;;;;;;;5031433;28;20025;-70
2022/02/21 05:22:58;;;;;;;9.98;3.58;;;;;;;;;;5027987;28;20033;-71
2022/02/21 05:25:24;;;;;;;17.45;4.22;;;;;;;;;;5026863;28;20044;-71
2022/02/21 05:27:50;;;;;;;15.15;3.47;;;;;;;;;;5032401;28;20263;-70
2022/02/21 05:30:16;;;;;;;13.40;3.85;;;;;;;;;;5027602;28;20029;-73
2022/02/21 05:32:43;;;;;;;14.85;4.22;;;;;;;;;;5028297;28;20553;-71
2022/02/21 05:35:09;;;;;;;12.40;3.72;;;;;;;;;;5033007;28;20036;-70
2022/02/21 05:37:38;;;;;;;14.68;3.85;;;;;;;;;;5028001;28;20056;-70
2022/02/21 05:40:05;;;;;;;13.85;3.90;;;;;;;;;;5027635;28;20628;-73
2022/02/21 05:42:32;;;;;;;15.80;3.72;;;;;;;;;;5026942;28;20025;-73
2022/02/21 05:44:58;;;;;;;12.27;4.28;;;;;;;;;;5027110;28;20048;-72
2022/02/21 05:47:24;;;;;;;15.93;3.67;;;;;;;;;;5027713;28;20029;-73
2022/02/21 05:49:50;;;;;;;17.40;3.47;;;;;;;;;;5028738;28;20112;-72
2022/02/21 05:52:16;;;;;;;12.85;4.88;;;;;;;;;;5029080;28;20025;-73
2022/02/21 05:54:42;;;;;;;15.02;4.65;;;;;;;;;;5030931;28;20033;-71
2022/02/21 05:57:09;;;;;;;12.98;3.50;;;;;;;;;;5027611;28;20061;-70
2022/02/21 05:59:35;;;;;;;17.40;4.35;;;;;;;;;;5030855;28;20517;-70
2022/02/21 06:02:01;;;;;;;17.95;3.67;;;;;;;;;;5027313;28;20473;-74
2022/02/21 06:04:27;;;;;;;17.40;4.43;;;;;;;;;;5025902;28;20045;-70
2022/02/21 06:06:53;;;;;;;13.18;3.75;;;;;;;;;;5030293;28;20045;-70
2022/02/21 06:09:19;;;;;;;18.02;4.13;;;;;;;;;;5023745;28;20469;-69
2022/02/21 06:11:47;;;;;;;14.82;3.25;;;;;;;;;;5028520;28;20033;-70
2022/02/21 06:14:13;;;;;;;15.68;3.67;;;;;;;;;;5024668;28;20176;-71
2022/02/21 06:16:41;;;;;;;13.75;3.58;;;;;;;;;;5024374;28;20047;-70
2022/02/21 06:19:07;;;;;;;15.48;3.63;;;;;;;;;;5029825;28;20045;-70
2022/02/21 06:21:33;;;;;;;12.18;3.55;;;;;;;;;;5029507;28;20131;-70
2022/02/21 06:23:59;;;;;;;12.38;3.50;;;;;;;;;;5026405;28;20029;-70
2022/02/21 06:26:26;;;;;;;21.17;3.38;;;;;;;;;;5028010;28;20048;-70
2022/02/21 06:28:52;;;;;;;12.35;2.67;;;;;;;;;;5026847;28;20150;-70
2022/02/21 06:31:18;;;;;;;17.02;3.10;;;;;;;;;;5030265;28;20116;-73
2022/02/21 06:33:44;;;;;;;18.90;3.78;;;;;;;;;;5030348;28;20827;-71
2022/02/21 06:36:11;;;;;;;22.45;4.03;;;;;;;;;;5026859;28;20469;-69
2022/02/21 06:38:39;;;;;;;19.13;3.10;;;;;;;;;;5027152;28;20029;-71
2022/02/21 06:41:05;;;;;;;19.13;3.05;;;;;;;;;;5028428;28;20044;-70
2022/02/21 06:43:32;;;;;;;11.43;2.72;;;;;;;;;;5034886;28;20564;-70
2022/02/21 06:45:58;;;;;;;17.45;3.83;;;;;;;;;;5031410;28;20041;-71
2022/02/21 06:48:24;;;;;;;13.75;2.42;;;;;;;;;;5029080;28;20094;-70
2022/02/21 06:50:51;;;;;;;11.98;2.60;;;;;;;;;;5030526;28;20036;-70
2022/02/21 06:53:17;;;;;;;12.10;2.58;;;;;;;;;;5031868;28;20454;-70
2022/02/21 06:55:43;;;;;;;12.95;2.60;;;;;;;;;;5035722;28;20144;-70
2022/02/21 06:58:11;;;;;;;13.00;2.80;;;;;;;;;;5038903;28;20067;-70
2022/02/21 07:00:37;;;;;;;14.18;3.45;;;;;;;;;;5034267;28;20021;-70
2022/02/21 07:03:04;;;;;;;15.13;3.03;;;;;;;;;;5033519;28;20024;-70
2022/02/21 07:05:30;;;;;;;10.60;2.67;;;;;;;;;;5033101;28;20040;-71
2022/02/21 07:07:56;;;;;;;11.68;2.13;;;;;;;;;;5032835;28;20217;-72
2022/02/21 07:10:22;;;;;;;15.75;2.25;;;;;;;;;;5030943;28;20630;-72
2022/02/21 07:12:48;;;;;;;13.20;2.53;;;;;;;;;;5034265;28;20031;-70
2022/02/21 07:15:15;;;;;;;12.30;2.45;;;;;;;;;;5027335;28;20429;-70
2022/02/21 07:17:42;;;;;;;13.93;2.78;;;;;;;;;;5030230;28;20032;-70
2022/02/21 07:20:12;;;;;;;11.02;2.83;;;;;;;;;;5033137;28;20033;-70
2022/02/21 07:22:39;;;;;;;13.25;2.88;;;;;;;;;;5028917;28;20038;-71
2022/02/21 07:25:05;;;;;;;11.65;2.72;;;;;;;;;;5030227;28;20033;-71
2022/02/21 07:27:31;;;;;;;15.60;2.58;;;;;;;;;;5039697;28;20091;-70
2022/02/21 07:29:58;;;;;;;11.32;2.67;;;;;;;;;;5033716;28;20033;-72
2022/02/21 07:32:24;;;;;;;13.73;2.50;;;;;;;;;;5032182;28;20044;-69
2022/02/21 07:34:50;;;;;;;12.95;2.65;;;;;;;;;;5028534;28;20394;-70
2022/02/21 07:37:16;;;;;;;13.05;2.72;;;;;;;;;;5029997;28;20030;-70
2022/02/21 07:39:42;;;;;;;15.02;3.22;;;;;;;;;;5032888;28;20649;-69
2022/02/21 07:42:08;;;;;;;13.40;2.58;;;;;;;;;;5040629;28;20049;-71
2022/02/21 07:44:34;;;;;;;10.82;3.13;;;;;;;;;;5030515;28;20033;-70
2022/02/21 07:47:01;;;;;;;15.10;3.13;;;;;;;;;;5028626;28;20061;-73
2022/02/21 07:49:27;;;;;;;14.60;3.20;;;;;;;;;;5030771;28;20017;-70
2022/02/21 07:51:53;;;;;;;12.80;2.47;;;;;;;;;;5032721;28;20437;-70
2022/02/21 07:54:19;;;;;;;12.30;2.60;;;;;;;;;;5032098;28;20024;-70
2022/02/21 07:56:45;;;;;;;11.27;2.38;;;;;;;;;;5029496;28;20590;-70
2022/02/21 07:59:11;;;;;;;12.55;2.80;;;;;;;;;;5035553;28;20779;-72
2022/02/21 08:01:37;;;;;;;17.58;2.97;;;;;;;;;;5017984;28;20032;-71
2022/02/21 08:04:04;;;;;;;14.07;2.95;;;;;;;;;;5031705;28;20041;-70
2022/02/21 08:06:30;;;;;;;10.05;2.25;;;;;;;;;;5031143;28;20034;-71
2022/02/21 08:08:56;;;;;;;12.88;2.75;;;;;;;;;;5034151;28;20099;-70
2022/02/21 08:11:24;;;;;;;11.00;2.50;;;;;;;;;;5027328;28;20032;-69
2022/02/21 08:13:50;;;;;;;17.52;3.65;;;;;;;;;;5029714;28;20025;-70
2022/02/21 08:16:16;;;;;;;8.43;2.25;;;;;;;;;;5031188;28;20083;-70
2022/02/21 08:18:43;;;;;;;14.88;3.00;;;;;;;;;;5032932;28;20084;-69
2022/02/21 08:21:09;;;;;;;12.65;2.88;;;;;;;;;;5034986;28;20060;-69
2022/02/21 08:23:35;;;;;;;13.15;2.55;;;;;;;;;;5030509;28;20037;-70
2022/02/21 08:26:01;;;;;;;7.43;2.47;;;;;;;;;;5034557;28;20037;-69
2022/02/21 08:28:27;;;;;;;8.18;2.78;;;;;;;;;;5034258;28;20469;-69
2022/02/21 08:30:53;;;;;;;14.07;2.10;;;;;;;;;;5031088;28;20086;-69
2022/02/21 08:33:19;;;;;;;16.85;2.88;;;;;;;;;;5031257;28;20044;-69
2022/02/21 08:35:45;;;;;;;9.93;2.47;;;;;;;;;;5031338;28;20041;-68
2022/02/21 08:38:11;;;;;;;12.20;3.45;;;;;;;;;;5034328;28;20021;-68
2022/02/21 08:40:39;;;;;;;9.02;2.65;;;;;;;;;;5033462;28;20095;-68
2022/02/21 08:43:05;;;;;;;12.50;2.05;;;;;;;;;;5034728;28;20032;-68
2022/02/21 08:45:31;;;;;;;11.93;2.63;;;;;;;;;;5033707;28;20120;-68
2022/02/21 08:47:57;;;;;;;12.07;2.72;;;;;;;;;;5032947;28;20021;-68
2022/02/21 08:50:23;;;;;;;10.75;2.72;;;;;;;;;;5027986;28;20033;-68
2022/02/21 08:52:49;;;;;;;6.38;1.70;;;;;;;;;;5032388;28;20332;-68
2022/02/21 08:55:16;;;;;;;10.73;2.10;;;;;;;;;;5034049;28;20029;-68
2022/02/21 08:57:43;;;;;;;10.68;2.72;;;;;;;;;;5033655;28;20053;-68
2022/02/21 09:00:10;;;;;;;15.90;2.70;;;;;;;;;;5033142;28;20079;-71
2022/02/21 09:02:37;;;;;;;19.95;3.45;;;;;;;;;;5040713;28;20017;-69
2022/02/21 09:05:03;;;;;;;12.27;2.90;;;;;;;;;;5036649;28;20033;-70
2022/02/21 09:07:30;;;;;;;10.77;3.38;;;;;;;;;;5038843;28;20044;-69
2022/02/21 09:09:56;;;;;;;15.15;3.38;;;;;;;;;;5032540;28;20030;-69
2022/02/21 09:12:23;;;;;;;8.55;2.40;;;;;;;;;;5038015;28;20412;-70
2022/02/21 09:14:51;;;;;;;10.90;2.58;;;;;;;;;;5039045;28;20060;-68
2022/02/21 09:17:18;;;;;;;10.85;2.85;;;;;;;;;;5021251;28;20413;-68
2022/02/21 09:19:47;;;;;;;11.93;2.47;;;;;;;;;;5021067;28;20029;-68
2022/02/21 09:22:13;;;;;;;9.60;2.88;;;;;;;;;;5021067;28;20366;-69
2022/02/21 09:24:39;;;;;;;9.57;2.90;;;;;;;;;;5022251;28;20617;-69
2022/02/21 09:27:06;;;;;;;17.63;2.83;;;;;;;;;;5022788;28;20059;-69
2022/02/21 09:29:32;;;;;;;8.43;2.42;;;;;;;;;;5022097;28;20034;-69
2022/02/21 09:31:58;;;;;;;8.02;2.28;;;;;;;;;;5020544;28;20532;-68
2022/02/21 09:34:28;;;;;;;9.05;2.45;;;;;;;;;;5019244;28;20048;-69
2022/02/21 09:36:54;;;;;;;6.82;2.10;;;;;;;;;;5021144;28;20025;-68
2022/02/21 09:39:20;;;;;;;6.95;2.50;;;;;;;;;;5020461;28;20036;-69
2022/02/21 09:41:46;;;;;;;13.05;2.78;;;;;;;;;;5020754;28;20021;-68
2022/02/21 09:44:12;;;;;;;10.90;2.10;;;;;;;;;;5020825;28;20041;-68
2022/02/21 09:46:42;;;;;;;8.35;2.47;;;;;;;;;;5021796;28;20406;-68
2022/02/21 09:49:09;;;;;;;8.13;2.55;;;;;;;;;;5021083;28;20025;-68
2022/02/21 09:51:35;;;;;;;8.05;2.17;;;;;;;;;;5022040;28;20116;-68
2022/02/21 09:54:01;;;;;;;12.73;3.17;;;;;;;;;;5021992;28;20034;-68
2022/02/21 09:56:28;;;;;;;16.17;2.88;;;;;;;;;;5021636;28;20036;-68
2022/02/21 09:58:55;;;;;;;10.07;3.13;;;;;;;;;;5025317;28;20044;-70
2022/02/21 10:01:23;;;;;;;10.90;2.80;;;;;;;;;;5039163;28;20025;-68
2022/02/21 10:03:49;;;;;;;16.35;2.90;;;;;;;;;;5041870;28;20049;-68
2022/02/21 10:06:19;;;;;;;10.90;2.20;;;;;;;;;;5041698;28;20631;-68
2022/02/21 10:09:09;;;;;;;6.78;2.58;;;;;;;;;;5040136;28;20040;-68
2022/02/21 10:11:38;;;;;;;11.98;2.30;;;;;;;;;;5041752;28;20024;-68
2022/02/21 10:14:04;;;;;;;9.27;2.75;;;;;;;;;;5041787;28;20051;-68
2022/02/21 10:16:38;;;;;;;7.70;2.10;;;;;;;;;;5042326;28;20033;-68
2022/02/21 10:19:15;;;;;;;12.05;2.28;;;;;;;;;;5045641;28;20051;-68
2022/02/21 10:21:47;;;;;;;13.35;2.53;;;;;;;;;;5045447;28;20075;-68
2022/02/21 10:24:13;;;;;;;11.93;2.25;;;;;;;;;;5044091;28;20033;-69
2022/02/21 10:26:41;;;;;;;12.43;2.95;;;;;;;;;;5045516;28;20037;-68
2022/02/21 10:29:08;;;;;;;13.52;3.05;;;;;;;;;;5046639;28;20450;-72
2022/02/21 10:31:34;;;;;;;11.38;2.47;;;;;;;;;;5044298;28;20822;-68
2022/02/21 10:34:05;;;;;;;10.45;2.25;;;;;;;;;;5045349;28;20542;-68
2022/02/21 10:36:32;;;;;;;8.88;1.92;;;;;;;;;;5045697;28;20029;-68
2022/02/21 10:38:59;;;;;;;10.43;2.33;;;;;;;;;;5045138;28;20501;-69
2022/02/21 10:41:37;;;;;;;18.25;2.85;;;;;;;;;;5044200;28;20029;-70
2022/02/21 10:44:14;;;;;;;9.48;2.25;;;;;;;;;;5045695;28;20337;-68
2022/02/21 10:46:40;;;;;;;8.82;2.55;;;;;;;;;;5045150;28;20585;-68
2022/02/21 10:49:11;;;;;;;8.82;2.45;;;;;;;;;;5035912;28;20475;-68
2022/02/21 10:51:37;;;;;;;13.65;2.63;;;;;;;;;;5041940;28;20029;-68
2022/02/21 10:54:12;;;;;;;9.07;2.65;;;;;;;;;;5041113;28;20017;-67
2022/02/21 10:56:42;;;;;;;8.98;3.03;;;;;;;;;;5043060;28;20381;-67
2022/02/21 10:59:08;;;;;;;6.85;2.53;;;;;;;;;;5039843;28;20048;-67
2022/02/21 11:01:34;;;;;;;10.05;2.45;;;;;;;;;;5035482;28;20017;-67
2022/02/21 11:04:01;;;;;;;11.85;3.70;;;;;;;;;;5039510;28;20041;-67
2022/02/21 11:06:27;;;;;;;10.85;2.20;;;;;;;;;;5043013;28;20048;-67
2022/02/21 11:08:54;;;;;;;12.80;2.55;;;;;;;;;;5035880;28;20022;-67
2022/02/21 11:11:22;;;;;;;7.05;2.83;;;;;;;;;;5034376;28;20146;-67
2022/02/21 11:13:49;;;;;;;12.20;2.50;;;;;;;;;;5043122;28;20017;-67
2022/02/21 11:16:15;;;;;;;17.35;3.33;;;;;;;;;;5035116;28;20540;-67
2022/02/21 11:18:41;;;;;;;11.25;2.80;;;;;;;;;;5042472;28;20044;-67
2022/02/21 11:21:07;;;;;;;7.97;2.42;;;;;;;;;;5043054;28;20057;-68
2022/02/21 11:23:33;;;;;;;8.20;2.25;;;;;;;;;;5037717;28;20083;-67
2022/02/21 11:26:17;;;;;;;16.58;3.22;;;;;;;;;;5032379;28;20037;-67
2022/02/21 11:28:45;;;;;;;11.95;2.35;;;;;;;;;;5030535;28;20030;-67
2022/02/21 11:31:13;;;;;;;12.32;3.00;;;;;;;;;;5034311;28;20028;-67
2022/02/21 11:33:58;;;;;;;10.23;2.70;;;;;;;;;;5031521;28;20517;-67
2022/02/21 11:36:25;;;;;;;11.63;2.85;;;;;;;;;;5033448;28;20061;-67
2022/02/21 11:38:51;;;;;;;19.00;3.55;;;;;;;;;;5034977;28;20442;-67
2022/02/21 11:41:18;;;;;;;9.38;3.08;;;;;;;;;;5033696;28;20025;-67
2022/02/21 11:43:45;;;;;;;15.23;3.28;;;;;;;;;;5030247;28;20056;-67
2022/02/21 11:46:21;;;;;;;13.85;2.95;;;;;;;;;;5038178;28;20036;-67
2022/02/21 11:48:55;;;;;;;12.88;3.58;;;;;;;;;;5040425;28;20055;-68
2022/02/21 11:51:41;;;;;;;8.55;2.60;;;;;;;;;;5043296;28;20067;-68
2022/02/21 11:54:27;;;;;;;16.98;3.53;;;;;;;;;;5036105;28;20041;-68
2022/02/21 11:56:53;;;;;;;14.55;2.60;;;;;;;;;;5018497;28;20046;-68
2022/02/21 11:59:22;;;;;;;13.20;2.80;;;;;;;;;;5039102;28;20071;-68
2022/02/21 12:01:48;;;;;;;12.60;3.40;;;;;;;;;;5032111;28;20860;-67
2022/02/21 12:04:20;;;;;;;15.48;3.72;;;;;;;;;;5031771;28;20114;-68
2022/02/21 12:06:56;;;;;;;19.05;3.38;;;;;;;;;;5025297;28;20040;-68
2022/02/21 12:09:23;;;;;;;10.90;2.72;;;;;;;;;;5033675;28;20037;-68
2022/02/21 12:11:49;;;;;;;11.20;3.08;;;;;;;;;;5031632;28;20075;-67
2022/02/21 12:14:17;;;;;;;13.60;3.08;;;;;;;;;;5031462;28;20104;-68
2022/02/21 12:16:58;;;;;;;16.02;2.88;;;;;;;;;;5037312;28;20029;-68
2022/02/21 12:19:28;;;;;;;10.43;2.63;;;;;;;;;;5038765;28;20645;-67
2022/02/21 12:22:13;;;;;;;11.45;2.60;;;;;;;;;;5032004;28;20113;-68
2022/02/21 12:24:57;;;;;;;11.55;2.35;;;;;;;;;;5031969;28;20044;-67
2022/02/21 12:27:24;;;;;;;9.23;2.53;;;;;;;;;;5030524;28;20033;-68
2022/02/21 12:29:50;;;;;;;12.70;2.88;;;;;;;;;;5043243;28;20029;-68
2022/02/21 12:32:23;;;;;;;10.18;2.22;;;;;;;;;;5043317;28;20032;-69
2022/02/21 12:34:49;;;;;;;14.10;2.65;;;;;;;;;;5041673;28;20028;-68
2022/02/21 12:37:17;;;;;;;12.73;2.42;;;;;;;;;;5042848;28;20139;-68
2022/02/21 12:39:45;;;;;;;11.95;2.30;;;;;;;;;;5043391;28;20021;-70
2022/02/21 12:42:12;;;;;;;14.55;2.67;;;;;;;;;;5043179;28;20037;-68
2022/02/21 12:44:38;;;;;;;11.50;3.13;;;;;;;;;;5041907;28;20017;-68
2022/02/21 12:47:05;;;;;;;15.02;3.17;;;;;;;;;;5043046;28;20056;-68
2022/02/21 12:49:39;;;;;;;12.60;2.80;;;;;;;;;;5043057;28;20033;-67
2022/02/21 12:52:12;;;;;;;12.68;2.88;;;;;;;;;;5042751;28;20033;-68
2022/02/21 12:54:50;;;;;;;13.10;3.50;;;;;;;;;;5043011;28;20528;-68
2022/02/21 12:57:18;;;;;;;13.20;3.03;;;;;;;;;;5041249;28;20064;-68
2022/02/21 12:59:46;;;;;;;8.57;2.50;;;;;;;;;;5043073;28;20681;-68
2022/02/21 13:02:12;;;;;;;15.48;2.42;;;;;;;;;;5043293;28;20029;-68
2022/02/21 13:04:38;;;;;;;17.02;3.15;;;;;;;;;;5042627;28;20080;-68
2022/02/21 13:07:07;;;;;;;14.27;2.78;;;;;;;;;;5041236;28;20051;-71
2022/02/21 13:09:33;;;;;;;8.85;2.70;;;;;;;;;;5042453;28;20029;-68
2022/02/21 13:12:00;;;;;;;8.05;2.60;;;;;;;;;;5042590;28;20025;-68
2022/02/21 13:14:26;;;;;;;10.30;2.80;;;;;;;;;;5042365;28;20086;-68
2022/02/21 13:16:52;;;;;;;11.43;3.00;;;;;;;;;;5043004;28;20020;-68
2022/02/21 13:19:23;;;;;;;18.55;3.20;;;;;;;;;;5041424;28;20074;-68
2022/02/21 13:21:49;;;;;;;17.33;2.53;;;;;;;;;;5042668;28;20565;-69
2022/02/21 13:24:17;;;;;;;11.98;2.92;;;;;;;;;;5042245;28;20039;-68
2022/02/21 13:26:45;;;;;;;12.35;2.83;;;;;;;;;;5042373;28;20215;-68
2022/02/21 13:29:24;;;;;;;10.00;3.00;;;;;;;;;;5041135;28;20013;-69
2022/02/21 13:31:50;;;;;;;13.93;2.72;;;;;;;;;;5042626;28;20622;-68
2022/02/21 13:34:17;;;;;;;13.70;3.17;;;;;;;;;;5042092;28;20489;-67
2022/02/21 13:36:44;;;;;;;14.45;3.20;;;;;;;;;;5041482;28;20048;-68
2022/02/21 13:39:10;;;;;;;12.90;3.22;;;;;;;;;;5042245;28;20575;-68
2022/02/21 13:41:44;;;;;;;10.43;2.58;;;;;;;;;;5042475;28;20032;-68
2022/02/21 13:44:23;;;;;;;12.70;2.63;;;;;;;;;;5042684;28;20039;-68
2022/02/21 13:46:50;;;;;;;14.60;3.53;;;;;;;;;;5041795;28;20040;-68
2022/02/21 13:49:16;;;;;;;9.02;2.58;;;;;;;;;;5042144;28;20029;-68
2022/02/21 13:51:42;;;;;;;11.55;3.05;;;;;;;;;;5040050;28;20052;-68
2022/02/21 13:54:45;;;;;;;13.65;2.72;;;;;;;;;;5042036;28;20033;-68
2022/02/21 13:57:17;;;;;;;11.15;2.92;;;;;;;;;;4999724;28;20505;-68
2022/02/21 13:59:47;;;;;;;12.27;3.20;;;;;;;;;;5035718;28;20052;-68
2022/02/21 14:02:23;;;;;;;11.20;2.40;;;;;;;;;;5040473;28;20670;-67
2022/02/21 14:04:49;;;;;;;13.95;2.90;;;;;;;;;;5041977;28;20077;-68
2022/02/21 14:07:16;;;;;;;12.88;2.33;;;;;;;;;;5042100;28;20076;-68
2022/02/21 14:09:42;;;;;;;19.50;2.95;;;;;;;;;;5042040;28;20083;-68
2022/02/21 14:12:12;;;;;;;10.35;2.28;;;;;;;;;;5041960;28;20025;-68
2022/02/21 14:14:39;;;;;;;11.90;2.70;;;;;;;;;;5040744;28;20063;-69
2022/02/21 14:17:05;;;;;;;12.52;2.58;;;;;;;;;;5041547;28;20025;-68
2022/02/21 14:19:31;;;;;;;8.93;2.50;;;;;;;;;;5041795;28;20025;-68
2022/02/21 14:21:59;;;;;;;10.00;2.35;;;;;;;;;;5041533;28;20037;-68
2022/02/21 14:24:25;;;;;;;13.57;2.90;;;;;;;;;;5040276;28;20040;-69
2022/02/21 14:26:52;;;;;;;9.38;2.50;;;;;;;;;;5041808;28;20067;-68
2022/02/21 14:29:18;;;;;;;10.02;2.42;;;;;;;;;;5041523;28;20029;-68
2022/02/21 14:31:45;;;;;;;10.20;2.30;;;;;;;;;;5041889;28;20036;-69
2022/02/21 14:34:11;;;;;;;12.50;2.67;;;;;;;;;;5040403;28;20509;-68